Los Angeles International Airport
KLAX : now visible

Airfield :











YOU CAN JOIN US ON...

 
LOGIN :

Register | Disclaimer

   EN    FR    IT 

 









Legend :    VFR   Marginal VFR   IFR   Intensive IFR   Very Intensive IFR
Visi :
Ceiling :
>= 8 km
>= 3000ft
5 to 8 km
1000 to 3000 ft
1500m to 5 km
500 to 1000 ft
800 to 1500m
200 to 500 ft
< 800m
< 200 ft
Symbols :   Thunderstorms  Fog  Heavy snow  Heavy precipitations  Wind > 20 kt






- Airport Elevation : 125 ft
- IATA code : LAX


KLAX - Los Angeles International

CURRENT METAR :
  • 080753Z 24004KT 10SM SCT018 BKN030 OVC060 17/13 A3010 RMK AO2 RAB36E47 SLP189 P0000 T01720133 401940161

EXPIRED METARs :
  • 080653Z COR 00000KT 10SM SCT012 BKN028 BKN055 17/14 A3010 RMK AO2 SLP190 T01670139
  • 080553Z VRB03KT 10SM BKN012 BKN025 OVC050 17/13 A3010 RMK AO2 SLP193 BKN012 V SCT T01720133 10183 20167 53003

TAF KLAX
Valid from the 08 at 07:00 until the 09 at 12:00 UTC


080705Z 0807/0912 VRB03KT P6SM VCSH SCT012 BKN025 OVC050
FM080900 20005KT 4SM -RA BR SCT008 OVC015
FM081200 12005KT 3SM -RA BR BKN008 OVC015
FM081600 25006KT 4SM -RA BR BKN012 OVC020
FM081900 25012KT P6SM -SHRA BKN020 BKN040
FM082200 25010KT P6SM VCSH SCT025 BKN040
FM090100 28006KT P6SM OVC050
FM090600 VRB03KT P6SM OVC050



MET'MAP, your aeronautical weather chart ! - Copyright ORBIFLY December 2007 - Disclaimer

ORBIFLY MET'MAP TEAM :

Programming & Development : Alexandra Zaïnal
Concept & original design : Baudouin d'Aumeries
Assistance for programming : Marc-Olivier Méhu
Technical & hardware support : Manuel Goepfert

Contact : metmap@orbifly.com




SOURCES & CREDITS :

   NOAA       Earth
Advisory